Providence — SVAW2 — position and weather

sailwx.info

Track history (hours):
 
Tides and Currents Weather Stations Pressure Air Temp Water Temp Dewpoint Dewpoint Depression Visibility Wind Speed Wind Dir Waves Ship Positions

Providence

Last reported at 2017-Oct-22 06:28 UTC. Time now 2017-Oct-22 06:38 UTC.
Position N 37°54' E 023°05'.

Length 103 m; draft 5 m.

Type: Tanker. MMSI: 240966000.

Date/timePositionNaut miles runAvg speedWind from/ knotsBaromVisibWave heightAir tempDewpointWater temp
2017-Oct-22 06:28N 37°54' E 023°05'0 0.0
2017-Oct-22 05:58N 37°54' E 023°05'0 0.0
2017-Oct-22 05:28N 37°54' E 023°04'0 0.0
2017-Oct-22 04:58N 37°54' E 023°04'0 0.0
2017-Oct-22 04:28N 37°54' E 023°04'0 0.0
2017-Oct-22 03:58N 37°54' E 023°04'0 0.1
2017-Oct-22 03:28N 37°54' E 023°04'0 0.0
2017-Oct-22 02:58N 37°54' E 023°04'0 0.0
2017-Oct-22 02:28N 37°54' E 023°04'0 0.0
2017-Oct-22 01:58N 37°54' E 023°04'0 0.0
2017-Oct-22 01:28N 37°54' E 023°04'0 0.0
2017-Oct-22 00:58N 37°54' E 023°04'0 0.0
2017-Oct-22 00:28N 37°54' E 023°04'0 0.0
2017-Oct-21 23:58N 37°54' E 023°04'0 0.0
2017-Oct-21 23:28N 37°54' E 023°04'0 0.0
2017-Oct-21 22:58N 37°54' E 023°04'0 0.0
2017-Oct-21 22:25N 37°54' E 023°04'0 0.0
2017-Oct-21 21:58N 37°54' E 023°04'0 0.0
2017-Oct-21 21:28N 37°54' E 023°04'0 0.0
2017-Oct-21 20:58N 37°54' E 023°04'0 0.0
2017-Oct-21 20:25N 37°54' E 023°04'0 0.0
2017-Oct-21 19:58N 37°54' E 023°04'0 0.0
2017-Oct-21 19:28N 37°54' E 023°04'0 0.0
2017-Oct-21 18:58N 37°54' E 023°04'0 0.0
2017-Oct-21 18:28N 37°54' E 023°04'0 0.0
2017-Oct-21 17:58N 37°54' E 023°04'0 0.1
2017-Oct-21 17:28N 37°54' E 023°04'0 0.1
2017-Oct-21 16:58N 37°54' E 023°04'0 0.0
2017-Oct-21 16:28N 37°54' E 023°04'0 0.2
2017-Oct-21 15:58N 37°54' E 023°04'0 0.1
2017-Oct-21 15:28N 37°54' E 023°04'0 0.9
2017-Oct-21 15:01N 37°54' E 023°05'3 7.0
2017-Oct-21 14:31N 37°54' E 023°09'10 9.7
2017-Oct-21 13:31N 37°51' E 023°21'510.1
2017-Oct-21 13:01N 37°50' E 023°27'510.4
2017-Oct-21 12:31N 37°50' E 023°34'5 9.1
2017-Oct-21 12:00N 37°49' E 023°40'510.5
2017-Oct-21 11:31N 37°45' E 023°43'510.1
2017-Oct-21 11:01N 37°40' E 023°46'313 8.7
2017-Oct-19 22:51N 40°45' E 029°13'410.8
2017-Oct-19 22:30N 40°45' E 029°18'5 0.1
2017-Oct-17 21:18N 40°44' E 029°24'2 7.6
2017-Oct-17 21:00N 40°43' E 029°21'3 6.1
2017-Oct-17 20:30N 40°44' E 029°17'5 9.2
2017-Oct-17 20:00N 40°44' E 029°11'5 9.3
2017-Oct-17 19:30N 40°43' E 029°05'308 7.9
2017-Oct-16 04:16N 37°39' E 023°46'3 9.5
2017-Oct-16 03:58N 37°40' E 023°43'5 9.9
2017-Oct-16 03:30N 37°44' E 023°40'5 9.9
2017-Oct-16 03:00N 37°48' E 023°37'4 8.4
2017-Oct-16 02:30N 37°50' E 023°32'5 9.7
2017-Oct-16 02:00N 37°50' E 023°26'5 9.6
2017-Oct-16 01:30N 37°51' E 023°20'5 9.6
2017-Oct-16 01:00N 37°52' E 023°14'510.0
2017-Oct-16 00:30N 37°53' E 023°08'3 5.1
2017-Oct-15 23:59N 37°55' E 023°05'0 0.1
2017-Oct-15 23:29N 37°55' E 023°05'0 0.0
2017-Oct-15 22:59N 37°55' E 023°05'0 0.0
2017-Oct-15 22:29N 37°55' E 023°05'0 0.0
2017-Oct-15 21:59N 37°55' E 023°05'0 0.0
2017-Oct-15 21:29N 37°55' E 023°05'0 0.0
2017-Oct-15 20:59N 37°55' E 023°05'0 0.0
2017-Oct-15 20:29N 37°55' E 023°05'0 0.0
2017-Oct-15 19:59N 37°55' E 023°05'0 0.0
2017-Oct-15 19:29N 37°55' E 023°05'0 0.0
2017-Oct-15 18:59N 37°55' E 023°05'0 0.0
2017-Oct-15 17:44N 37°55' E 023°05'0 0.0
2017-Oct-15 17:14N 37°55' E 023°05'0 0.0
2017-Oct-15 16:59N 37°55' E 023°05'0 0.0
2017-Oct-15 16:29N 37°55' E 023°05'0 0.0
2017-Oct-15 15:59N 37°55' E 023°05'0 0.0
2017-Oct-15 15:29N 37°55' E 023°05'0 0.0
2017-Oct-15 14:59N 37°55' E 023°05'0 0.0
2017-Oct-15 13:59N 37°55' E 023°05'0 0.0
2017-Oct-15 13:29N 37°55' E 023°05'0 0.0
2017-Oct-15 12:59N 37°55' E 023°05'0 0.0
2017-Oct-15 12:29N 37°55' E 023°05'0 0.0
2017-Oct-15 11:59N 37°55' E 023°05'0 0.0
2017-Oct-15 11:29N 37°55' E 023°05'0 0.0
2017-Oct-15 10:59N 37°55' E 023°05'0 0.0
2017-Oct-15 10:29N 37°55' E 023°05'0 0.0
2017-Oct-15 09:59N 37°55' E 023°05'0 0.0
2017-Oct-15 09:29N 37°55' E 023°05'0 0.0
2017-Oct-15 08:59N 37°55' E 023°05'0 0.0
2017-Oct-15 08:29N 37°55' E 023°05'0 0.0
2017-Oct-15 07:59N 37°55' E 023°05'0 0.0
2017-Oct-15 07:29N 37°55' E 023°05'0 0.0
2017-Oct-15 06:59N 37°55' E 023°05'0 0.0
2017-Oct-15 06:29N 37°55' E 023°05'0 0.0
2017-Oct-15 05:59N 37°55' E 023°05'0 0.0
2017-Oct-15 05:29N 37°55' E 023°05'0 0.0
2017-Oct-15 04:59N 37°55' E 023°05'0 0.0
2017-Oct-15 04:29N 37°55' E 023°05'0 0.0
2017-Oct-15 03:59N 37°55' E 023°05'0 0.0
2017-Oct-15 03:29N 37°55' E 023°05'0 0.0
2017-Oct-15 02:59N 37°55' E 023°05'0 0.0
2017-Oct-15 02:29N 37°55' E 023°05'0 0.0
2017-Oct-15 01:59N 37°55' E 023°05'0 0.0
2017-Oct-15 01:29N 37°55' E 023°05'0 0.0
2017-Oct-15 00:59N 37°55' E 023°05'0 0.0
2017-Oct-15 00:29N 37°55' E 023°05'0 0.0
2017-Oct-14 23:59N 37°55' E 023°05'0 0.0
2017-Oct-14 23:29N 37°55' E 023°05'0 0.0
2017-Oct-14 22:59N 37°55' E 023°05'0 0.0
2017-Oct-14 22:29N 37°55' E 023°05'0 0.2
2017-Oct-14 22:00N 37°55' E 023°05'1 1.4
2017-Oct-14 21:30N 37°55' E 023°06'0 0.0
2017-Oct-14 20:58N 37°55' E 023°06'0 0.0
2017-Oct-14 20:28N 37°55' E 023°06'0 0.0
2017-Oct-14 19:58N 37°55' E 023°06'0 0.2
2017-Oct-14 19:28N 37°55' E 023°06'0 0.1
2017-Oct-14 18:58N 37°55' E 023°06'0 0.0
2017-Oct-14 18:28N 37°55' E 023°06'0 0.1
2017-Oct-14 17:58N 37°55' E 023°06'0 0.2
2017-Oct-14 17:28N 37°55' E 023°06'0 0.0
2017-Oct-14 16:58N 37°55' E 023°06'0 0.1
2017-Oct-14 16:28N 37°55' E 023°06'0 0.1
2017-Oct-14 15:58N 37°55' E 023°06'0 0.0
2017-Oct-14 15:28N 37°55' E 023°06'0 0.1
2017-Oct-14 14:58N 37°55' E 023°06'0 0.3
2017-Oct-14 14:28N 37°55' E 023°06'0 0.0
2017-Oct-14 13:58N 37°55' E 023°06'0 0.2
2017-Oct-14 13:28N 37°55' E 023°06'0 0.1
2017-Oct-14 12:58N 37°55' E 023°06'0 0.0
2017-Oct-14 12:28N 37°55' E 023°06'0 0.0
2017-Oct-14 11:58N 37°55' E 023°06'0 0.0
2017-Oct-14 11:28N 37°55' E 023°06'0 0.0
2017-Oct-14 10:58N 37°55' E 023°06'0 0.0
2017-Oct-14 10:28N 37°55' E 023°06'0 0.1
2017-Oct-14 09:58N 37°55' E 023°06'0 0.0
2017-Oct-14 09:28N 37°55' E 023°06'0 0.0
2017-Oct-14 08:58N 37°55' E 023°06'0 0.0
2017-Oct-14 08:28N 37°55' E 023°06'0 0.1
2017-Oct-14 07:58N 37°55' E 023°06'0 0.1
2017-Oct-14 07:28N 37°55' E 023°06'0 0.0
2017-Oct-14 06:58N 37°55' E 023°06'0 0.1
2017-Oct-14 06:28N 37°55' E 023°06'0 0.0
2017-Oct-14 05:58N 37°55' E 023°06'0 0.0
2017-Oct-14 05:28N 37°55' E 023°06'0 0.0
2017-Oct-14 04:58N 37°55' E 023°06'0 0.1
2017-Oct-14 04:28N 37°55' E 023°06'0 0.2
2017-Oct-14 03:58N 37°55' E 023°06'0 0.1
2017-Oct-14 03:28N 37°55' E 023°06'0 0.0
2017-Oct-14 02:58N 37°55' E 023°06'0 0.1
2017-Oct-14 02:28N 37°55' E 023°06'0 0.0
2017-Oct-14 01:58N 37°55' E 023°06'0 0.0
2017-Oct-14 01:28N 37°55' E 023°06'0 0.0
2017-Oct-14 00:58N 37°55' E 023°06'0 0.0
2017-Oct-14 00:28N 37°55' E 023°06'0 0.1
2017-Oct-13 23:58N 37°55' E 023°06'0 0.0
2017-Oct-13 23:28N 37°55' E 023°06'0 0.0
2017-Oct-13 22:58N 37°55' E 023°06'0 0.0
2017-Oct-13 22:28N 37°55' E 023°06'0 0.0
2017-Oct-13 21:58N 37°55' E 023°06'0 0.1
2017-Oct-13 21:28N 37°55' E 023°06'0 0.1
2017-Oct-13 20:58N 37°55' E 023°06'0 0.1
2017-Oct-13 20:28N 37°55' E 023°06'0 0.1
2017-Oct-13 19:58N 37°55' E 023°06'0 0.2
2017-Oct-13 19:28N 37°55' E 023°06'0 0.1
2017-Oct-13 18:58N 37°55' E 023°06'0 0.1
2017-Oct-13 18:28N 37°55' E 023°06'0 0.0
2017-Oct-13 17:58N 37°55' E 023°06'0 0.0
2017-Oct-13 17:28N 37°55' E 023°06'0 0.1
2017-Oct-13 16:58N 37°55' E 023°06'0 0.1
2017-Oct-13 16:28N 37°55' E 023°06'0 0.1
2017-Oct-13 15:58N 37°55' E 023°06'0 0.0
2017-Oct-13 15:28N 37°55' E 023°06'0 0.0
2017-Oct-13 14:58N 37°55' E 023°06'0 0.0
2017-Oct-13 14:28N 37°55' E 023°06'0 0.2
2017-Oct-13 13:58N 37°55' E 023°06'0 0.2
2017-Oct-13 13:28N 37°55' E 023°06'0 0.0
2017-Oct-13 12:58N 37°55' E 023°06'0 0.0
2017-Oct-13 12:28N 37°55' E 023°06'0 0.0
2017-Oct-13 11:58N 37°55' E 023°06'0 0.0
2017-Oct-13 11:28N 37°55' E 023°06'0 0.1
2017-Oct-13 10:58N 37°55' E 023°06'0 0.1
2017-Oct-13 10:28N 37°55' E 023°06'0 0.2
2017-Oct-13 09:58N 37°55' E 023°06'0 0.2
2017-Oct-13 09:28N 37°55' E 023°06'0 0.1
2017-Oct-13 08:58N 37°55' E 023°06'0 0.0
2017-Oct-13 08:28N 37°55' E 023°06'0 0.0
2017-Oct-13 07:58N 37°55' E 023°06'0 0.0
2017-Oct-13 07:28N 37°55' E 023°06'0 0.0
2017-Oct-13 06:58N 37°55' E 023°06'0 0.0
2017-Oct-13 06:28N 37°55' E 023°06'0 0.0
2017-Oct-13 05:58N 37°55' E 023°06'0 0.0
2017-Oct-13 05:28N 37°55' E 023°06'0 0.1
2017-Oct-13 04:58N 37°55' E 023°06'0 0.1
2017-Oct-13 04:28N 37°55' E 023°06'0 0.0
2017-Oct-13 03:58N 37°55' E 023°06'0 0.0
2017-Oct-13 03:28N 37°55' E 023°06'0 0.0
2017-Oct-13 02:58N 37°55' E 023°06'0 0.1
2017-Oct-13 02:28N 37°55' E 023°06'0 0.0
2017-Oct-13 01:58N 37°55' E 023°06'0 0.1
2017-Oct-13 01:28N 37°55' E 023°06'0 0.1
2017-Oct-13 00:58N 37°55' E 023°06'0 0.1
2017-Oct-13 00:28N 37°55' E 023°06'0 0.1
2017-Oct-12 23:58N 37°55' E 023°06'0 0.0
2017-Oct-12 23:28N 37°55' E 023°06'0 0.0
2017-Oct-12 22:58N 37°55' E 023°06'0 0.0
2017-Oct-12 22:28N 37°55' E 023°06'0 0.1
2017-Oct-12 21:58N 37°55' E 023°06'0 0.0
2017-Oct-12 21:28N 37°55' E 023°06'0 0.0
2017-Oct-12 20:58N 37°55' E 023°06'0 0.0
2017-Oct-12 20:28N 37°55' E 023°06'0 0.0
2017-Oct-12 19:58N 37°55' E 023°06'0 0.0
2017-Oct-12 19:28N 37°55' E 023°06'0 0.1
2017-Oct-12 18:58N 37°55' E 023°06'0 0.0
2017-Oct-12 18:28N 37°55' E 023°06'0 0.0
2017-Oct-12 17:58N 37°55' E 023°06'0 0.0
2017-Oct-12 17:28N 37°55' E 023°06'0 0.0
2017-Oct-12 16:58N 37°55' E 023°06'0 0.0
2017-Oct-12 16:28N 37°55' E 023°06'0 0.1
2017-Oct-12 15:58N 37°55' E 023°06'0 0.0
2017-Oct-12 15:28N 37°55' E 023°06'0 0.0
2017-Oct-12 14:58N 37°55' E 023°06'0 0.0
2017-Oct-12 14:28N 37°55' E 023°06'0 0.6
2017-Oct-12 14:01N 37°55' E 023°06'3 6.0
2017-Oct-12 13:31N 37°54' E 023°10'3 1.6
2017-Oct-12 11:30N 37°55' E 023°06'0 0.0
2017-Oct-12 11:00N 37°55' E 023°06'0 0.0
2017-Oct-12 10:30N 37°55' E 023°06'0 0.0
2017-Oct-12 10:00N 37°55' E 023°06'0 0.0
2017-Oct-12 09:30N 37°55' E 023°06'0 0.0
2017-Oct-12 09:00N 37°55' E 023°06'0 0.0
2017-Oct-12 08:30N 37°55' E 023°06'0 0.0
2017-Oct-12 08:00N 37°55' E 023°06'0 0.0
2017-Oct-12 07:30N 37°55' E 023°06'0 0.0
2017-Oct-12 07:00N 37°55' E 023°06'0 0.0
2017-Oct-12 06:30N 37°55' E 023°06'  
Track history (hours):
 
Tides and Currents Weather Stations Pressure Air Temp Water Temp Dewpoint Dewpoint Depression Visibility Wind Speed Wind Dir Waves Ship Positions

Providence

Last reported at 2017-Oct-22 06:28 UTC. Time now 2017-Oct-22 06:38 UTC.
Position N 37°54' E 023°05'.

Length 103 m; draft 5 m.

Type: Tanker. MMSI: 240966000.

Date/timePositionNaut miles runAvg speedWind from/ knotsBaromVisibWave heightAir tempDewpointWater temp
2017-Oct-22 06:28N 37°54' E 023°05'0 0.0
2017-Oct-22 05:58N 37°54' E 023°05'0 0.0
2017-Oct-22 05:28N 37°54' E 023°04'0 0.0
2017-Oct-22 04:58N 37°54' E 023°04'0 0.0
2017-Oct-22 04:28N 37°54' E 023°04'0 0.0
2017-Oct-22 03:58N 37°54' E 023°04'0 0.1
2017-Oct-22 03:28N 37°54' E 023°04'0 0.0
2017-Oct-22 02:58N 37°54' E 023°04'0 0.0
2017-Oct-22 02:28N 37°54' E 023°04'0 0.0
2017-Oct-22 01:58N 37°54' E 023°04'0 0.0
2017-Oct-22 01:28N 37°54' E 023°04'0 0.0
2017-Oct-22 00:58N 37°54' E 023°04'0 0.0
2017-Oct-22 00:28N 37°54' E 023°04'0 0.0
2017-Oct-21 23:58N 37°54' E 023°04'0 0.0
2017-Oct-21 23:28N 37°54' E 023°04'0 0.0
2017-Oct-21 22:58N 37°54' E 023°04'0 0.0
2017-Oct-21 22:25N 37°54' E 023°04'0 0.0
2017-Oct-21 21:58N 37°54' E 023°04'0 0.0
2017-Oct-21 21:28N 37°54' E 023°04'0 0.0
2017-Oct-21 20:58N 37°54' E 023°04'0 0.0
2017-Oct-21 20:25N 37°54' E 023°04'0 0.0
2017-Oct-21 19:58N 37°54' E 023°04'0 0.0
2017-Oct-21 19:28N 37°54' E 023°04'0 0.0
2017-Oct-21 18:58N 37°54' E 023°04'0 0.0
2017-Oct-21 18:28N 37°54' E 023°04'0 0.0
2017-Oct-21 17:58N 37°54' E 023°04'0 0.1
2017-Oct-21 17:28N 37°54' E 023°04'0 0.1
2017-Oct-21 16:58N 37°54' E 023°04'0 0.0
2017-Oct-21 16:28N 37°54' E 023°04'0 0.2
2017-Oct-21 15:58N 37°54' E 023°04'0 0.1
2017-Oct-21 15:28N 37°54' E 023°04'0 0.9
2017-Oct-21 15:01N 37°54' E 023°05'3 7.0
2017-Oct-21 14:31N 37°54' E 023°09'10 9.7
2017-Oct-21 13:31N 37°51' E 023°21'510.1
2017-Oct-21 13:01N 37°50' E 023°27'510.4
2017-Oct-21 12:31N 37°50' E 023°34'5 9.1
2017-Oct-21 12:00N 37°49' E 023°40'510.5
2017-Oct-21 11:31N 37°45' E 023°43'510.1
2017-Oct-21 11:01N 37°40' E 023°46'313 8.7
2017-Oct-19 22:51N 40°45' E 029°13'410.8
2017-Oct-19 22:30N 40°45' E 029°18'5 0.1
2017-Oct-17 21:18N 40°44' E 029°24'2 7.6
2017-Oct-17 21:00N 40°43' E 029°21'3 6.1
2017-Oct-17 20:30N 40°44' E 029°17'5 9.2
2017-Oct-17 20:00N 40°44' E 029°11'5 9.3
2017-Oct-17 19:30N 40°43' E 029°05'308 7.9
2017-Oct-16 04:16N 37°39' E 023°46'3 9.5
2017-Oct-16 03:58N 37°40' E 023°43'5 9.9
2017-Oct-16 03:30N 37°44' E 023°40'5 9.9
2017-Oct-16 03:00N 37°48' E 023°37'4 8.4
2017-Oct-16 02:30N 37°50' E 023°32'5 9.7
2017-Oct-16 02:00N 37°50' E 023°26'5 9.6
2017-Oct-16 01:30N 37°51' E 023°20'5 9.6
2017-Oct-16 01:00N 37°52' E 023°14'510.0
2017-Oct-16 00:30N 37°53' E 023°08'3 5.1
2017-Oct-15 23:59N 37°55' E 023°05'0 0.1
2017-Oct-15 23:29N 37°55' E 023°05'0 0.0
2017-Oct-15 22:59N 37°55' E 023°05'0 0.0
2017-Oct-15 22:29N 37°55' E 023°05'0 0.0
2017-Oct-15 21:59N 37°55' E 023°05'0 0.0
2017-Oct-15 21:29N 37°55' E 023°05'0 0.0
2017-Oct-15 20:59N 37°55' E 023°05'0 0.0
2017-Oct-15 20:29N 37°55' E 023°05'0 0.0
2017-Oct-15 19:59N 37°55' E 023°05'0 0.0
2017-Oct-15 19:29N 37°55' E 023°05'0 0.0
2017-Oct-15 18:59N 37°55' E 023°05'0 0.0
2017-Oct-15 17:44N 37°55' E 023°05'0 0.0
2017-Oct-15 17:14N 37°55' E 023°05'0 0.0
2017-Oct-15 16:59N 37°55' E 023°05'0 0.0
2017-Oct-15 16:29N 37°55' E 023°05'0 0.0
2017-Oct-15 15:59N 37°55' E 023°05'0 0.0
2017-Oct-15 15:29N 37°55' E 023°05'0 0.0
2017-Oct-15 14:59N 37°55' E 023°05'0 0.0
2017-Oct-15 13:59N 37°55' E 023°05'0 0.0
2017-Oct-15 13:29N 37°55' E 023°05'0 0.0
2017-Oct-15 12:59N 37°55' E 023°05'0 0.0
2017-Oct-15 12:29N 37°55' E 023°05'0 0.0
2017-Oct-15 11:59N 37°55' E 023°05'0 0.0
2017-Oct-15 11:29N 37°55' E 023°05'0 0.0
2017-Oct-15 10:59N 37°55' E 023°05'0 0.0
2017-Oct-15 10:29N 37°55' E 023°05'0 0.0
2017-Oct-15 09:59N 37°55' E 023°05'0 0.0
2017-Oct-15 09:29N 37°55' E 023°05'0 0.0
2017-Oct-15 08:59N 37°55' E 023°05'0 0.0
2017-Oct-15 08:29N 37°55' E 023°05'0 0.0
2017-Oct-15 07:59N 37°55' E 023°05'0 0.0
2017-Oct-15 07:29N 37°55' E 023°05'0 0.0
2017-Oct-15 06:59N 37°55' E 023°05'0 0.0
2017-Oct-15 06:29N 37°55' E 023°05'0 0.0
2017-Oct-15 05:59N 37°55' E 023°05'0 0.0
2017-Oct-15 05:29N 37°55' E 023°05'0 0.0
2017-Oct-15 04:59N 37°55' E 023°05'0 0.0
2017-Oct-15 04:29N 37°55' E 023°05'0 0.0
2017-Oct-15 03:59N 37°55' E 023°05'0 0.0
2017-Oct-15 03:29N 37°55' E 023°05'0 0.0
2017-Oct-15 02:59N 37°55' E 023°05'0 0.0
2017-Oct-15 02:29N 37°55' E 023°05'0 0.0
2017-Oct-15 01:59N 37°55' E 023°05'0 0.0
2017-Oct-15 01:29N 37°55' E 023°05'0 0.0
2017-Oct-15 00:59N 37°55' E 023°05'0 0.0
2017-Oct-15 00:29N 37°55' E 023°05'0 0.0
2017-Oct-14 23:59N 37°55' E 023°05'0 0.0
2017-Oct-14 23:29N 37°55' E 023°05'0 0.0
2017-Oct-14 22:59N 37°55' E 023°05'0 0.0
2017-Oct-14 22:29N 37°55' E 023°05'0 0.2
2017-Oct-14 22:00N 37°55' E 023°05'1 1.4
2017-Oct-14 21:30N 37°55' E 023°06'0 0.0
2017-Oct-14 20:58N 37°55' E 023°06'0 0.0
2017-Oct-14 20:28N 37°55' E 023°06'0 0.0
2017-Oct-14 19:58N 37°55' E 023°06'0 0.2
2017-Oct-14 19:28N 37°55' E 023°06'0 0.1
2017-Oct-14 18:58N 37°55' E 023°06'0 0.0
2017-Oct-14 18:28N 37°55' E 023°06'0 0.1
2017-Oct-14 17:58N 37°55' E 023°06'0 0.2
2017-Oct-14 17:28N 37°55' E 023°06'0 0.0
2017-Oct-14 16:58N 37°55' E 023°06'0 0.1
2017-Oct-14 16:28N 37°55' E 023°06'0 0.1
2017-Oct-14 15:58N 37°55' E 023°06'0 0.0
2017-Oct-14 15:28N 37°55' E 023°06'0 0.1
2017-Oct-14 14:58N 37°55' E 023°06'0 0.3
2017-Oct-14 14:28N 37°55' E 023°06'0 0.0
2017-Oct-14 13:58N 37°55' E 023°06'0 0.2
2017-Oct-14 13:28N 37°55' E 023°06'0 0.1
2017-Oct-14 12:58N 37°55' E 023°06'0 0.0
2017-Oct-14 12:28N 37°55' E 023°06'0 0.0
2017-Oct-14 11:58N 37°55' E 023°06'0 0.0
2017-Oct-14 11:28N 37°55' E 023°06'0 0.0
2017-Oct-14 10:58N 37°55' E 023°06'0 0.0
2017-Oct-14 10:28N 37°55' E 023°06'0 0.1
2017-Oct-14 09:58N 37°55' E 023°06'0 0.0
2017-Oct-14 09:28N 37°55' E 023°06'0 0.0
2017-Oct-14 08:58N 37°55' E 023°06'0 0.0
2017-Oct-14 08:28N 37°55' E 023°06'0 0.1
2017-Oct-14 07:58N 37°55' E 023°06'0 0.1
2017-Oct-14 07:28N 37°55' E 023°06'0 0.0
2017-Oct-14 06:58N 37°55' E 023°06'0 0.1
2017-Oct-14 06:28N 37°55' E 023°06'0 0.0
2017-Oct-14 05:58N 37°55' E 023°06'0 0.0
2017-Oct-14 05:28N 37°55' E 023°06'0 0.0
2017-Oct-14 04:58N 37°55' E 023°06'0 0.1
2017-Oct-14 04:28N 37°55' E 023°06'0 0.2
2017-Oct-14 03:58N 37°55' E 023°06'0 0.1
2017-Oct-14 03:28N 37°55' E 023°06'0 0.0
2017-Oct-14 02:58N 37°55' E 023°06'0 0.1
2017-Oct-14 02:28N 37°55' E 023°06'0 0.0
2017-Oct-14 01:58N 37°55' E 023°06'0 0.0
2017-Oct-14 01:28N 37°55' E 023°06'0 0.0
2017-Oct-14 00:58N 37°55' E 023°06'0 0.0
2017-Oct-14 00:28N 37°55' E 023°06'0 0.1
2017-Oct-13 23:58N 37°55' E 023°06'0 0.0
2017-Oct-13 23:28N 37°55' E 023°06'0 0.0
2017-Oct-13 22:58N 37°55' E 023°06'0 0.0
2017-Oct-13 22:28N 37°55' E 023°06'0 0.0
2017-Oct-13 21:58N 37°55' E 023°06'0 0.1
2017-Oct-13 21:28N 37°55' E 023°06'0 0.1
2017-Oct-13 20:58N 37°55' E 023°06'0 0.1
2017-Oct-13 20:28N 37°55' E 023°06'0 0.1
2017-Oct-13 19:58N 37°55' E 023°06'0 0.2
2017-Oct-13 19:28N 37°55' E 023°06'0 0.1
2017-Oct-13 18:58N 37°55' E 023°06'0 0.1
2017-Oct-13 18:28N 37°55' E 023°06'0 0.0
2017-Oct-13 17:58N 37°55' E 023°06'0 0.0
2017-Oct-13 17:28N 37°55' E 023°06'0 0.1
2017-Oct-13 16:58N 37°55' E 023°06'0 0.1
2017-Oct-13 16:28N 37°55' E 023°06'0 0.1
2017-Oct-13 15:58N 37°55' E 023°06'0 0.0
2017-Oct-13 15:28N 37°55' E 023°06'0 0.0
2017-Oct-13 14:58N 37°55' E 023°06'0 0.0
2017-Oct-13 14:28N 37°55' E 023°06'0 0.2
2017-Oct-13 13:58N 37°55' E 023°06'0 0.2
2017-Oct-13 13:28N 37°55' E 023°06'0 0.0
2017-Oct-13 12:58N 37°55' E 023°06'0 0.0
2017-Oct-13 12:28N 37°55' E 023°06'0 0.0
2017-Oct-13 11:58N 37°55' E 023°06'0 0.0
2017-Oct-13 11:28N 37°55' E 023°06'0 0.1
2017-Oct-13 10:58N 37°55' E 023°06'0 0.1
2017-Oct-13 10:28N 37°55' E 023°06'0 0.2
2017-Oct-13 09:58N 37°55' E 023°06'0 0.2
2017-Oct-13 09:28N 37°55' E 023°06'0 0.1
2017-Oct-13 08:58N 37°55' E 023°06'0 0.0
2017-Oct-13 08:28N 37°55' E 023°06'0 0.0
2017-Oct-13 07:58N 37°55' E 023°06'0 0.0
2017-Oct-13 07:28N 37°55' E 023°06'0 0.0
2017-Oct-13 06:58N 37°55' E 023°06'0 0.0
2017-Oct-13 06:28N 37°55' E 023°06'0 0.0
2017-Oct-13 05:58N 37°55' E 023°06'0 0.0
2017-Oct-13 05:28N 37°55' E 023°06'0 0.1
2017-Oct-13 04:58N 37°55' E 023°06'0 0.1
2017-Oct-13 04:28N 37°55' E 023°06'0 0.0
2017-Oct-13 03:58N 37°55' E 023°06'0 0.0
2017-Oct-13 03:28N 37°55' E 023°06'0 0.0
2017-Oct-13 02:58N 37°55' E 023°06'0 0.1
2017-Oct-13 02:28N 37°55' E 023°06'0 0.0
2017-Oct-13 01:58N 37°55' E 023°06'0 0.1
2017-Oct-13 01:28N 37°55' E 023°06'0 0.1
2017-Oct-13 00:58N 37°55' E 023°06'0 0.1
2017-Oct-13 00:28N 37°55' E 023°06'0 0.1
2017-Oct-12 23:58N 37°55' E 023°06'0 0.0
2017-Oct-12 23:28N 37°55' E 023°06'0 0.0
2017-Oct-12 22:58N 37°55' E 023°06'0 0.0
2017-Oct-12 22:28N 37°55' E 023°06'0 0.1
2017-Oct-12 21:58N 37°55' E 023°06'0 0.0
2017-Oct-12 21:28N 37°55' E 023°06'0 0.0
2017-Oct-12 20:58N 37°55' E 023°06'0 0.0
2017-Oct-12 20:28N 37°55' E 023°06'0 0.0
2017-Oct-12 19:58N 37°55' E 023°06'0 0.0
2017-Oct-12 19:28N 37°55' E 023°06'0 0.1
2017-Oct-12 18:58N 37°55' E 023°06'0 0.0
2017-Oct-12 18:28N 37°55' E 023°06'0 0.0
2017-Oct-12 17:58N 37°55' E 023°06'0 0.0
2017-Oct-12 17:28N 37°55' E 023°06'0 0.0
2017-Oct-12 16:58N 37°55' E 023°06'0 0.0
2017-Oct-12 16:28N 37°55' E 023°06'0 0.1
2017-Oct-12 15:58N 37°55' E 023°06'0 0.0
2017-Oct-12 15:28N 37°55' E 023°06'0 0.0
2017-Oct-12 14:58N 37°55' E 023°06'0 0.0
2017-Oct-12 14:28N 37°55' E 023°06'0 0.6
2017-Oct-12 14:01N 37°55' E 023°06'3 6.0
2017-Oct-12 13:31N 37°54' E 023°10'3 1.6
2017-Oct-12 11:30N 37°55' E 023°06'0 0.0
2017-Oct-12 11:00N 37°55' E 023°06'0 0.0
2017-Oct-12 10:30N 37°55' E 023°06'0 0.0
2017-Oct-12 10:00N 37°55' E 023°06'0 0.0
2017-Oct-12 09:30N 37°55' E 023°06'0 0.0
2017-Oct-12 09:00N 37°55' E 023°06'0 0.0
2017-Oct-12 08:30N 37°55' E 023°06'0 0.0
2017-Oct-12 08:00N 37°55' E 023°06'0 0.0
2017-Oct-12 07:30N 37°55' E 023°06'0 0.0
2017-Oct-12 07:00N 37°55' E 023°06'0 0.0
2017-Oct-12 06:30N 37°55' E 023°06'  

Dump ship's entire track history